Chilcompton, United Kingdom
Current Conditions -  °F | °C
As of 2:20 AM on Thursday 18 Dec 2014 (Local Time) from EGGD Reporting Station
Drizzle Drizzle  
Wind Chill: 52°   Ceiling: 200
Heat Index: 52°   Visibility: 0.25mi
Dew Point: 50°   Wind: 25mph
Humidity: 94%   Direction: 250°WSW
Pressure: 29.83"   Gusts: 38mph
Location:  51.26°N, 2.51°W
Report Text: EGGD 180220Z 25022G33KT 0400 -DZ FG FEW001 OVC002 11/10 Q1010
Loading
Personal Weather Stations






























Interactive Weather Map New forecast layout! Learn more

10-Day Weather Forecast

Advertisements
Track Severe Weather on mobile